Bastrop, LA

9:59 AM CDT on May 27, 2018 (GMT -0500)
Bastrop

Weather History for KBQP - September, 2013

Change the Weather History Date:

Monday, September 2, 2013

  Actual Average (KMLU) Record (KMLU)
Temperature  
Mean Temperature 86 °F -  
Max Temperature 98 °F 91 °F 105 °F (2000)
Min Temperature 76 °F 69 °F 51 °F (1967)
Cooling Degree Days 22    
Growing Degree Days 36 (Base 50)    
Moisture  
Dew Point 72 °F    
Average Humidity 68    
Maximum Humidity 90    
Minimum Humidity 38    
Precipitation  
Precipitation 0.30 in - - ()
Sea Level Pressure  
Sea Level Pressure 29.91 in    
Wind  
Wind Speed 1 mph (West)    
Max Wind Speed 10 mph    
Max Gust Speed 16 mph    
Visibility 10 miles    
Events Rain , Thunderstorm    
Averages and records for this station are not official NWS values.
T = Trace of Precipitation, MM = Missing Value Source: NWS Daily Summary

Daily Weather History Graph

Daily Weather History Graph

Search for Another Location

Airport or City:

Astronomy

Sep. 02, 2013 Rise Set
Actual Time 6:43 AM CDT 7:30 PM CDT
Civil Twilight 6:17 AM CDT 7:55 PM CDT
Nautical Twilight 5:48 AM CDT 8:25 PM CDT
Astronomical Twilight 5:17 AM CDT 8:55 PM CDT
Moon 4:05 AM CDT (9/2) 5:40 PM CDT (9/2)
Length of Visible Light 13h 37m
Length of Day
12h 47m
Waning Crescent, 8% of the Moon is Illuminated
Sep 2
Waning Crescent
Sep 5
New
Sep 12
First Quarter
Sep 19
Full
Sep 26
Last Quarter

Hourly Weather History & Observations

Time (CDT) Temp. Heat Index Dew Point Humidity Pressure Visibility Wind Dir Wind Speed Gust Speed Precip Events Conditions
12:15 AM 82.8 °F 86.7 °F 70.0 °F 65% 29.88 in 10.0 mi Calm Calm - N/A   Clear
12:35 AM 82.6 °F 86.6 °F 70.2 °F 66% 29.88 in 10.0 mi Calm Calm - N/A   Clear
12:55 AM 81.9 °F 86.0 °F 70.7 °F 69% 29.88 in 10.0 mi Calm Calm - N/A   Clear
1:15 AM 81.9 °F 86.0 °F 70.9 °F 69% 29.88 in 10.0 mi Calm Calm - N/A   Clear
1:35 AM 81.9 °F 86.2 °F 71.2 °F 70% 29.88 in 10.0 mi Calm Calm - N/A   Clear
1:55 AM 81.5 °F 85.9 °F 71.6 °F 72% 29.88 in 10.0 mi Calm Calm - N/A   Clear
2:15 AM 81.5 °F 85.9 °F 71.6 °F 72% 29.88 in 10.0 mi Calm Calm - N/A   Clear
2:35 AM 81.5 °F 85.9 °F 71.6 °F 72% 29.88 in 10.0 mi Calm Calm - N/A   Clear
2:55 AM 81.1 °F 85.4 °F 71.6 °F 73% 29.88 in 10.0 mi Calm Calm - N/A   Clear
3:15 AM 81.0 °F 85.1 °F 71.6 °F 73% 29.88 in 10.0 mi Calm Calm - N/A   Clear
3:35 AM 81.1 °F 85.2 °F 71.4 °F 72% 29.88 in 10.0 mi Calm Calm - N/A   Mostly Cloudy
3:55 AM 81.0 °F 84.9 °F 71.2 °F 72% 29.88 in 10.0 mi Calm Calm - N/A   Scattered Clouds
4:15 AM 80.6 °F 84.4 °F 71.1 °F 73% 29.88 in 10.0 mi Calm Calm - N/A   Clear
4:35 AM 80.1 °F 83.4 °F 70.9 °F 73% 29.88 in 10.0 mi Calm Calm - N/A   Clear
4:55 AM 79.7 °F - 70.9 °F 74% 29.89 in 10.0 mi Calm Calm - N/A   Clear
5:15 AM 79.7 °F - 70.7 °F 74% 29.90 in 10.0 mi Calm Calm - N/A   Clear
5:35 AM 79.0 °F - 70.7 °F 76% 29.90 in 10.0 mi Calm Calm - N/A   Clear
5:55 AM 78.8 °F - 70.7 °F 76% 29.91 in 10.0 mi Calm Calm - N/A   Clear
6:15 AM 77.7 °F - 70.7 °F 79% 29.91 in 10.0 mi Calm Calm - N/A   Clear
6:35 AM 76.3 °F - 70.7 °F 83% 29.91 in 10.0 mi Calm Calm - N/A   Clear
6:55 AM 76.6 °F - 70.9 °F 82% 29.91 in 10.0 mi Calm Calm - N/A   Clear
7:15 AM 76.6 °F - 71.1 °F 83% 29.92 in 10.0 mi Calm Calm - N/A   Clear
7:35 AM 78.3 °F - 71.6 °F 80% 29.93 in 10.0 mi Calm Calm - N/A   Clear
7:55 AM 80.4 °F 84.2 °F 71.6 °F 74% 29.93 in 10.0 mi Calm Calm - N/A   Clear
8:15 AM 82.4 °F 87.2 °F 71.8 °F 70% 29.93 in 10.0 mi Calm Calm - N/A   Clear
8:35 AM 84.4 °F 90.0 °F 72.0 °F 66% 29.93 in 10.0 mi Calm Calm - N/A   Clear
8:55 AM 86.2 °F 92.2 °F 72.0 °F 62% 29.94 in 10.0 mi West 5.8 mph - N/A   Clear
9:15 AM 87.1 °F 93.6 °F 72.1 °F 61% 29.95 in 10.0 mi West 9.2 mph - N/A   Clear
9:35 AM 89.1 °F 96.0 °F 71.8 °F 57% 29.96 in 10.0 mi West 10.4 mph - N/A   Scattered Clouds
9:55 AM 90.5 °F 97.5 °F 72.0 °F 54% 29.96 in 10.0 mi West 9.2 mph - N/A   Scattered Clouds
10:15 AM 91.2 °F 98.5 °F 71.8 °F 53% 29.97 in 10.0 mi West 10.4 mph - N/A   Clear
10:35 AM 92.7 °F 99.9 °F 71.8 °F 50% 29.97 in 10.0 mi West 10.4 mph - N/A   Clear
10:55 AM 94.3 °F 102.2 °F 71.6 °F 48% 29.97 in 10.0 mi SW 4.6 mph 16.1 mph N/A   Clear
11:15 AM 94.8 °F 101.5 °F 70.5 °F 45% 29.98 in 10.0 mi Calm Calm - N/A   Mostly Cloudy
11:35 AM 95.9 °F 103.2 °F 70.7 °F 44% 29.98 in 10.0 mi West 6.9 mph - N/A   Mostly Cloudy
11:55 AM 93.9 °F 100.3 °F 70.5 °F 46% 29.98 in 10.0 mi Calm Calm - N/A   Mostly Cloudy
12:15 PM 94.8 °F 101.5 °F 70.3 °F 45% 29.97 in 10.0 mi Calm Calm - N/A   Mostly Cloudy
12:35 PM 95.9 °F 100.7 °F 68.0 °F 40% 29.97 in 10.0 mi Calm Calm - N/A   Scattered Clouds
12:55 PM 97.5 °F 102.6 °F 68.0 °F 38% 29.96 in 10.0 mi Calm Calm - N/A   Mostly Cloudy
1:15 PM 96.4 °F 101.7 °F 68.2 °F 40% 29.96 in 10.0 mi Calm Calm - N/A Thunderstorm Thunderstorm
1:35 PM 81.9 °F 86.2 °F 71.1 °F 70% 29.97 in 2.5 mi West 9.2 mph - 0.16 in Rain , Thunderstorm Heavy Thunderstorms and Rain
1:55 PM 80.2 °F 85.8 °F 75.9 °F 87% 29.96 in 4.0 mi Calm Calm - 0.30 in Rain , Thunderstorm Light Thunderstorms and Rain
2:15 PM 84.4 °F 94.2 °F 77.0 °F 78% 29.94 in 10.0 mi Calm Calm - N/A   Clear
2:35 PM 89.1 °F 99.6 °F 75.4 °F 64% 29.92 in 10.0 mi Calm Calm - N/A Thunderstorm Clear
2:55 PM 91.0 °F 97.6 °F 71.4 °F 52% 29.91 in 10.0 mi Calm Calm - N/A Thunderstorm Clear
3:15 PM 90.5 °F 98.1 °F 72.1 °F 55% 29.91 in 10.0 mi Calm Calm - N/A   Clear
3:35 PM 90.1 °F 98.3 °F 73.2 °F 57% 29.91 in 10.0 mi Calm Calm - N/A   Clear
3:55 PM 89.6 °F 98.2 °F 73.6 °F 59% 29.90 in 10.0 mi Calm Calm - N/A Thunderstorm Clear
4:15 PM 89.4 °F 98.3 °F 73.8 °F 60% 29.89 in 10.0 mi Calm Calm - N/A Thunderstorm Clear
4:35 PM 89.2 °F 98.4 °F 74.1 °F 61% 29.88 in 10.0 mi Calm Calm - N/A   Clear
4:55 PM 89.8 °F 98.6 °F 73.8 °F 59% 29.88 in 10.0 mi Calm Calm - N/A   Clear
5:15 PM 89.8 °F 98.1 °F 73.2 °F 58% 29.87 in 10.0 mi Calm Calm - N/A   Clear
5:35 PM 89.6 °F 96.6 °F 71.8 °F 56% 29.87 in 10.0 mi Calm Calm - N/A   Clear
5:55 PM 90.7 °F 97.9 °F 71.8 °F 54% 29.87 in 10.0 mi Calm Calm - N/A   Clear
6:15 PM 90.3 °F 96.7 °F 70.9 °F 53% 29.87 in 10.0 mi Calm Calm - N/A   Clear
6:35 PM 90.1 °F 96.8 °F 71.2 °F 54% 29.86 in 10.0 mi Calm Calm - N/A   Clear
6:55 PM 89.2 °F 96.9 °F 72.5 °F 58% 29.87 in 10.0 mi Calm Calm - N/A   Clear
7:15 PM 86.0 °F 94.6 °F 74.8 °F 69% 29.87 in 10.0 mi Calm Calm - N/A   Clear
7:35 PM 83.1 °F 90.4 °F 75.0 °F 76% 29.88 in 10.0 mi Calm Calm - N/A   Clear
7:55 PM 81.3 °F 87.4 °F 74.8 °F 81% 29.88 in 10.0 mi Calm Calm - N/A   Clear
8:15 PM 80.4 °F 85.3 °F 74.1 °F 81% 29.88 in 10.0 mi Calm Calm - N/A   Clear
8:35 PM 80.2 °F 84.6 °F 73.0 °F 79% 29.89 in 10.0 mi Calm Calm - N/A   Clear
8:55 PM 80.1 °F 84.4 °F 73.4 °F 80% 29.90 in 10.0 mi Calm Calm - N/A   Clear
9:15 PM 79.9 °F - 73.2 °F 80% 29.90 in 10.0 mi Calm Calm - N/A   Clear
9:35 PM 77.7 °F - 73.6 °F 87% 29.91 in 10.0 mi Calm Calm - N/A   Clear
9:55 PM 77.5 °F - 73.8 °F 88% 29.92 in 7.0 mi Calm Calm - N/A   Clear
10:15 PM 77.0 °F - 73.6 °F 89% 29.92 in 7.0 mi Calm Calm - N/A   Clear
10:35 PM 76.6 °F - 73.6 °F 90% 29.92 in 5.0 mi Calm Calm - N/A   Clear
10:55 PM 77.0 °F - 73.8 °F 90% 29.91 in 7.0 mi Calm Calm - N/A   Clear
11:15 PM 77.5 °F - 74.1 °F 89% 29.92 in 7.0 mi Calm Calm - N/A   Clear
11:35 PM 77.9 °F - 74.1 °F 88% 29.92 in 7.0 mi Calm Calm - N/A   Clear
11:55 PM 76.6 °F - 73.4 °F 90% 29.92 in 4.0 mi Calm Calm - N/A   Clear